createdAt,value
2023-09-23T00:03:35.110Z,100082.84
2023-09-23T00:07:37.325Z,100091.09
2023-09-23T00:11:38.742Z,100093.56
2023-09-23T00:15:43.628Z,100092.19
2023-09-23T00:19:45.470Z,100110.84
2023-09-23T00:23:47.814Z,100111.94
2023-09-23T00:27:50.100Z,100111.81
2023-09-23T00:31:51.517Z,100122.06
2023-09-23T00:35:52.931Z,100119.00
2023-09-23T00:39:57.895Z,100126.28
2023-09-23T00:43:59.316Z,100124.78
2023-09-23T00:48:00.940Z,100142.59
2023-09-23T00:52:06.708Z,100147.66
2023-09-23T00:56:13.340Z,100152.88
2023-09-23T01:00:15.122Z,100151.75
2023-09-23T01:04:16.836Z,100152.88
2023-09-23T01:08:22.037Z,100137.91
2023-09-23T01:12:23.433Z,100153.59
2023-09-23T01:16:25.469Z,100165.13
2023-09-23T01:20:27.005Z,100167.16
2023-09-23T01:24:31.312Z,100171.72
2023-09-23T01:28:33.688Z,100181.06
2023-09-23T01:32:52.920Z,100180.38
2023-09-23T01:36:54.464Z,100174.94
2023-09-23T01:40:56.092Z,100180.44
2023-09-23T01:45:00.945Z,100183.16
2023-09-23T01:49:04.209Z,100188.97
2023-09-23T01:53:06.112Z,100186.56
2023-09-23T01:57:07.889Z,100184.88
2023-09-23T02:01:09.238Z,100186.59
2023-09-23T02:05:10.715Z,100191.09
2023-09-23T02:09:12.347Z,100197.06
2023-09-23T02:13:15.910Z,100211.69
2023-09-23T02:17:17.767Z,100209.50
2023-09-23T02:21:20.293Z,100220.25
2023-09-23T02:25:26.432Z,100208.41
2023-09-23T02:29:27.913Z,100227.78
2023-09-23T02:33:30.666Z,100220.34
2023-09-23T02:37:32.066Z,100228.38
2023-09-23T02:41:34.144Z,100228.38
2023-09-23T02:45:35.712Z,100230.06
2023-09-23T02:49:37.160Z,100237.47
2023-09-23T02:53:38.609Z,100233.66
2023-09-23T02:57:41.199Z,100238.44
2023-09-23T03:01:49.640Z,100241.56
2023-09-23T03:05:58.587Z,100238.47
2023-09-23T03:10:02.276Z,100247.94
2023-09-23T03:14:04.354Z,100250.13
2023-09-23T03:18:06.523Z,100247.41
2023-09-23T03:22:08.925Z,100240.88
2023-09-23T03:26:10.894Z,100248.22
2023-09-23T03:30:13.680Z,100252.13
2023-09-23T03:34:15.625Z,100248.63
2023-09-23T03:38:17.189Z,100253.06
2023-09-23T03:42:18.588Z,100257.94
2023-09-23T03:46:20.305Z,100258.78
2023-09-23T03:50:21.674Z,100263.53
2023-09-23T03:54:25.065Z,100263.22
2023-09-23T03:58:27.516Z,100267.69
2023-09-23T04:02:28.969Z,100269.59
2023-09-23T04:06:31.234Z,100271.50
2023-09-23T04:10:37.527Z,100283.00
2023-09-23T04:14:38.918Z,100287.88
2023-09-23T04:18:41.911Z,100294.09
2023-09-23T04:22:43.912Z,100292.47
2023-09-23T04:26:45.414Z,100295.53
2023-09-23T04:30:46.893Z,100296.66
2023-09-23T04:34:48.253Z,100312.47
2023-09-23T04:38:49.682Z,100306.63
2023-09-23T04:42:51.082Z,100305.97
2023-09-23T04:46:52.469Z,100322.91
2023-09-23T04:50:57.168Z,100323.88
2023-09-23T04:54:58.737Z,100330.94
2023-09-23T04:59:00.292Z,100336.38
2023-09-23T05:03:02.096Z,100346.34
2023-09-23T05:07:05.021Z,100346.75
2023-09-23T05:11:08.079Z,100349.53
2023-09-23T05:15:16.002Z,100355.25
2023-09-23T05:19:20.628Z,100363.59
2023-09-23T05:23:25.088Z,100370.94
2023-09-23T05:27:26.466Z,100391.66
2023-09-23T05:31:28.069Z,100394.84
2023-09-23T05:35:29.401Z,100396.94
2023-09-23T05:39:30.742Z,100412.09
2023-09-23T05:43:32.145Z,100411.25
2023-09-23T05:47:33.777Z,100410.53
2023-09-23T05:51:35.288Z,100416.66
2023-09-23T05:55:36.700Z,100425.84
2023-09-23T05:59:38.055Z,100447.38
2023-09-23T06:03:39.663Z,100456.00
2023-09-23T06:07:42.319Z,100461.28
2023-09-23T06:11:44.189Z,100471.00
2023-09-23T06:15:45.627Z,100476.56
2023-09-23T06:19:46.996Z,100488.09
2023-09-23T06:23:48.735Z,100491.03
2023-09-23T06:27:50.399Z,100495.88
2023-09-23T06:31:52.425Z,100509.22
2023-09-23T06:35:53.891Z,100509.66
2023-09-23T06:39:55.196Z,100519.41
2023-09-23T06:43:56.633Z,100532.47
2023-09-23T06:47:58.381Z,100540.66
2023-09-23T06:51:59.773Z,100557.91
2023-09-23T06:56:01.164Z,100550.84
2023-09-23T07:00:05.855Z,100543.00
2023-09-23T07:04:07.508Z,100545.22
2023-09-23T07:08:09.151Z,100550.72
2023-09-23T07:12:13.675Z,100565.38
2023-09-23T07:16:15.450Z,100562.09
2023-09-23T07:20:17.063Z,100571.31
2023-09-23T07:24:18.494Z,100574.28
2023-09-23T07:28:19.827Z,100585.31
2023-09-23T07:32:21.299Z,100588.25
2023-09-23T07:36:22.709Z,100582.13
2023-09-23T07:40:24.037Z,100586.78
2023-09-23T07:44:25.436Z,100591.31
2023-09-23T07:48:27.542Z,100611.91
2023-09-23T07:52:29.206Z,100611.66
2023-09-23T07:56:31.511Z,100610.41
2023-09-23T08:00:32.910Z,100624.47
2023-09-23T08:04:34.336Z,100612.25
2023-09-23T08:08:35.733Z,100615.97
2023-09-23T08:12:37.228Z,100620.81
2023-09-23T08:16:38.673Z,100627.97
2023-09-23T08:20:40.826Z,100635.91
2023-09-23T08:24:43.653Z,100629.09
2023-09-23T08:28:46.285Z,100629.13
2023-09-23T08:32:47.745Z,100631.09
2023-09-23T08:36:49.220Z,100637.69
2023-09-23T08:40:51.589Z,100648.38
2023-09-23T08:44:53.618Z,100659.69
2023-09-23T08:48:56.355Z,100660.81
2023-09-23T08:52:59.340Z,100665.28
2023-09-23T08:57:00.803Z,100674.09
2023-09-23T09:01:02.520Z,100669.91
2023-09-23T09:05:04.436Z,100678.13
2023-09-23T09:09:05.817Z,100684.16
2023-09-23T09:13:08.425Z,100687.47
2023-09-23T09:17:10.595Z,100695.94
2023-09-23T09:21:12.013Z,100706.94
2023-09-23T09:25:13.441Z,100705.63
2023-09-23T09:29:15.030Z,100709.03
2023-09-23T09:33:18.318Z,100705.28
2023-09-23T09:37:23.122Z,100716.81
2023-09-23T09:41:35.466Z,100715.59
2023-09-23T09:45:41.554Z,100716.44
2023-09-23T09:49:45.706Z,100720.22
2023-09-23T09:53:47.196Z,100731.34
2023-09-23T09:57:49.147Z,100719.31
2023-09-23T10:01:51.717Z,100725.28
2023-09-23T10:05:54.557Z,100714.38
2023-09-23T10:10:00.039Z,100711.13
2023-09-23T10:14:17.635Z,100719.41
2023-09-23T10:18:20.762Z,100723.28
2023-09-23T10:22:22.405Z,100735.84
2023-09-23T10:26:24.584Z,100757.69
2023-09-23T10:30:27.358Z,100754.47
2023-09-23T10:34:36.880Z,100754.03
2023-09-23T10:38:45.966Z,100757.09
2023-09-23T10:42:50.622Z,100763.38
2023-09-23T10:46:54.278Z,100776.97
2023-09-23T10:50:56.175Z,100777.50
2023-09-23T10:54:58.668Z,100770.72
2023-09-23T10:59:00.129Z,100768.88
2023-09-23T11:03:10.974Z,100787.31
2023-09-23T11:07:12.540Z,100794.72
2023-09-23T11:11:14.163Z,100802.34
2023-09-23T11:15:15.614Z,100805.41
2023-09-23T11:19:18.542Z,100797.69
2023-09-23T11:23:19.942Z,100805.28
2023-09-23T11:27:26.583Z,100802.47
2023-09-23T11:31:28.043Z,100817.72
2023-09-23T11:35:29.535Z,100806.56
2023-09-23T11:39:36.409Z,100810.56
2023-09-23T11:43:37.806Z,100804.50
2023-09-23T11:47:40.181Z,100810.59
2023-09-23T11:51:42.541Z,100821.28
2023-09-23T11:55:44.108Z,100826.13
2023-09-23T11:59:45.552Z,100835.84
2023-09-23T12:03:48.116Z,100840.66
2023-09-23T12:07:49.512Z,100844.94
2023-09-23T12:11:54.103Z,100842.41
2023-09-23T12:15:56.043Z,100846.47
2023-09-23T12:19:57.588Z,100852.34
2023-09-23T12:24:03.352Z,100851.06
2023-09-23T12:28:05.205Z,100861.84
2023-09-23T12:32:07.313Z,100861.81
2023-09-23T12:36:08.683Z,100865.69
2023-09-23T12:40:11.120Z,100876.84
2023-09-23T12:44:12.583Z,100872.44
2023-09-23T12:48:13.955Z,100882.28
2023-09-23T12:52:15.354Z,100870.44
2023-09-23T12:56:18.603Z,100886.03
2023-09-23T13:00:21.961Z,100890.31
2023-09-23T13:04:23.275Z,100896.13
2023-09-23T13:08:24.900Z,100905.41
2023-09-23T13:12:26.942Z,100918.31
2023-09-23T13:16:28.339Z,100921.34
2023-09-23T13:20:29.742Z,100930.50
2023-09-23T13:24:32.477Z,100914.25
2023-09-23T13:28:34.361Z,100918.28
2023-09-23T13:32:35.870Z,100924.63
2023-09-23T13:36:37.293Z,100922.38
2023-09-23T13:40:38.642Z,100919.84
2023-09-23T13:44:39.995Z,100921.91
2023-09-23T13:48:41.414Z,100921.56
2023-09-23T13:52:42.852Z,100912.38
2023-09-23T13:56:44.207Z,100926.22
2023-09-23T14:00:45.676Z,100921.50
2023-09-23T14:04:47.190Z,100927.56
2023-09-23T14:08:49.186Z,100923.75
2023-09-23T14:12:50.882Z,100921.06
2023-09-23T14:16:52.365Z,100921.22
2023-09-23T14:20:53.811Z,100928.25
2023-09-23T14:24:56.391Z,100929.13
2023-09-23T14:28:59.030Z,100926.69
2023-09-23T14:33:00.555Z,100927.00
2023-09-23T14:37:01.961Z,100935.97
2023-09-23T14:41:03.438Z,100938.16
2023-09-23T14:45:05.531Z,100938.41
2023-09-23T14:49:07.336Z,100928.22
2023-09-23T14:53:08.728Z,100953.25
2023-09-23T14:57:10.262Z,100956.59
2023-09-23T15:01:11.648Z,100959.25
2023-09-23T15:05:13.579Z,100961.78
2023-09-23T15:09:15.195Z,100958.47
2023-09-23T15:13:17.212Z,100971.47
2023-09-23T15:17:18.565Z,100979.00
2023-09-23T15:21:20.001Z,100984.91
2023-09-23T15:25:21.343Z,100986.72
2023-09-23T15:29:23.728Z,100987.28
2023-09-23T15:33:26.442Z,100995.41
2023-09-23T15:37:28.254Z,101000.72
2023-09-23T15:41:29.623Z,101003.03
2023-09-23T15:45:31.030Z,101020.59
2023-09-23T15:49:42.773Z,101018.72
2023-09-23T15:53:45.734Z,101021.09
2023-09-23T15:57:47.146Z,101032.91
2023-09-23T16:01:49.644Z,101034.44
2023-09-23T16:05:51.110Z,101030.44
2023-09-23T16:09:52.454Z,101046.28
2023-09-23T16:13:53.813Z,101043.94
2023-09-23T16:17:55.300Z,101045.41
2023-09-23T16:21:58.442Z,101055.09
2023-09-23T16:26:00.564Z,101055.78
2023-09-23T16:30:01.966Z,101065.09
2023-09-23T16:34:04.182Z,101064.44
2023-09-23T16:38:05.545Z,101070.91
2023-09-23T16:42:07.613Z,101073.00
2023-09-23T16:46:09.948Z,101076.59
2023-09-23T16:50:11.514Z,101083.72
2023-09-23T16:54:12.867Z,101085.38
2023-09-23T16:58:14.277Z,101097.84
2023-09-23T17:02:18.520Z,101107.19
2023-09-23T17:06:19.907Z,101109.38
2023-09-23T17:10:21.422Z,101125.59
2023-09-23T17:14:22.856Z,101131.63
2023-09-23T17:18:24.763Z,101148.91
2023-09-23T17:22:26.105Z,101154.31
2023-09-23T17:26:27.569Z,101171.44
2023-09-23T17:30:28.932Z,101181.91
2023-09-23T17:34:30.384Z,101178.31
2023-09-23T17:38:32.492Z,101185.41
2023-09-23T17:42:33.954Z,101199.97
2023-09-23T17:46:35.913Z,101200.53
2023-09-23T17:50:37.399Z,101206.09
2023-09-23T17:54:38.981Z,101218.03
2023-09-23T17:58:41.018Z,101221.66
2023-09-23T18:02:42.506Z,101220.28
2023-09-23T18:06:44.568Z,101217.38
2023-09-23T18:10:48.361Z,101233.34
2023-09-23T18:14:50.345Z,101232.66
2023-09-23T18:18:52.788Z,101239.88
2023-09-23T18:22:54.538Z,101242.63
2023-09-23T18:26:55.955Z,101245.56
2023-09-23T18:30:57.334Z,101250.00
2023-09-23T18:34:58.719Z,101258.03
2023-09-23T18:39:00.092Z,101266.56
2023-09-23T18:43:01.662Z,101267.84
2023-09-23T18:47:03.501Z,101287.69
2023-09-23T18:51:04.854Z,101289.41
2023-09-23T18:55:06.891Z,101297.47
2023-09-23T18:59:08.489Z,101299.34
2023-09-23T19:03:09.992Z,101306.38
2023-09-23T19:07:11.415Z,101305.25
2023-09-23T19:11:13.865Z,101307.47
2023-09-23T19:15:17.085Z,101313.75
2023-09-23T19:19:18.847Z,101320.19
2023-09-23T19:23:20.560Z,101325.63
2023-09-23T19:27:22.064Z,101331.28
2023-09-23T19:31:23.592Z,101339.81
2023-09-23T19:35:27.170Z,101354.34
2023-09-23T19:39:29.948Z,101354.50
2023-09-23T19:43:33.048Z,101353.50
2023-09-23T19:47:34.989Z,101355.31
2023-09-23T19:51:36.653Z,101359.41
2023-09-23T19:55:38.017Z,101359.78
2023-09-23T19:59:39.421Z,101364.00
2023-09-23T20:03:41.104Z,101367.53
2023-09-23T20:07:42.540Z,101363.78
2023-09-23T20:11:44.977Z,101372.97
2023-09-23T20:15:46.446Z,101393.66
2023-09-23T20:19:48.695Z,101395.16
2023-09-23T20:23:50.288Z,101400.19
2023-09-23T20:27:51.983Z,101405.25
2023-09-23T20:31:53.381Z,101401.06
2023-09-23T20:35:55.452Z,101414.06
2023-09-23T20:39:57.083Z,101411.69
2023-09-23T20:44:04.038Z,101417.09
2023-09-23T20:48:05.874Z,101414.47
2023-09-23T20:52:08.536Z,101423.97
2023-09-23T20:56:14.040Z,101425.66
2023-09-23T21:00:44.336Z,101437.69
2023-09-23T21:04:47.012Z,101435.72
2023-09-23T21:08:51.439Z,101430.41
2023-09-23T21:12:52.895Z,101451.81
2023-09-23T21:16:54.297Z,101453.53
2023-09-23T21:20:55.816Z,101456.75
2023-09-23T21:24:57.194Z,101459.78
2023-09-23T21:28:58.633Z,101462.84
2023-09-23T21:33:00.123Z,101473.50
2023-09-23T21:37:01.447Z,101470.88
2023-09-23T21:41:04.177Z,101473.69
2023-09-23T21:45:06.133Z,101476.91
2023-09-23T21:49:09.125Z,101480.91
2023-09-23T21:53:14.571Z,101487.75
2023-09-23T21:57:15.982Z,101485.22
2023-09-23T22:01:17.360Z,101479.88
2023-09-23T22:05:18.787Z,101489.06
2023-09-23T22:09:22.218Z,101501.09
2023-09-23T22:13:24.288Z,101504.44
2023-09-23T22:17:27.771Z,101509.75
2023-09-23T22:21:32.533Z,101511.09
2023-09-23T22:25:33.859Z,101505.66
2023-09-23T22:29:35.426Z,101510.56
2023-09-23T22:33:38.166Z,101508.00
2023-09-23T22:37:42.599Z,101506.22
2023-09-23T22:41:45.395Z,101524.97
2023-09-23T22:45:54.191Z,101519.81
2023-09-23T22:49:56.350Z,101523.75
2023-09-23T22:53:57.960Z,101524.47
2023-09-23T22:58:02.922Z,101524.53
2023-09-23T23:02:06.586Z,101535.81
2023-09-23T23:06:08.919Z,101529.56
2023-09-23T23:10:14.564Z,101536.53
2023-09-23T23:14:56.651Z,101540.31
2023-09-23T23:19:03.773Z,101549.22
2023-09-23T23:23:08.166Z,101548.28
2023-09-23T23:27:40.987Z,101560.09
2023-09-23T23:31:53.095Z,101549.50
2023-09-23T23:37:05.467Z,101555.50
2023-09-23T23:41:20.588Z,101557.06
2023-09-23T23:45:26.223Z,101552.84
2023-09-23T23:49:27.986Z,101557.19
2023-09-23T23:53:35.527Z,101567.06
